sensor_id;sensor_type;location;lat;lon;timestamp;P1;durP1;ratioP1;P2;durP2;ratioP2
31298;SDS011;17927;52.350;13.402;2022-11-20T00:00:23;13.85;;;10.55;;
31298;SDS011;17927;52.350;13.402;2022-11-20T00:02:48;18.05;;;11.40;;
31298;SDS011;17927;52.350;13.402;2022-11-20T00:05:14;17.95;;;11.60;;
31298;SDS011;17927;52.350;13.402;2022-11-20T00:07:39;13.65;;;10.50;;
31298;SDS011;17927;52.350;13.402;2022-11-20T00:10:04;18.08;;;10.07;;
31298;SDS011;17927;52.350;13.402;2022-11-20T00:12:30;17.85;;;11.55;;
31298;SDS011;17927;52.350;13.402;2022-11-20T00:14:56;15.43;;;11.45;;
31298;SDS011;17927;52.350;13.402;2022-11-20T00:17:21;16.45;;;11.35;;
31298;SDS011;17927;52.350;13.402;2022-11-20T00:19:46;15.07;;;10.77;;
31298;SDS011;17927;52.350;13.402;2022-11-20T00:22:11;15.45;;;11.10;;
31298;SDS011;17927;52.350;13.402;2022-11-20T00:24:37;16.08;;;11.60;;
31298;SDS011;17927;52.350;13.402;2022-11-20T00:27:02;15.70;;;11.52;;
31298;SDS011;17927;52.350;13.402;2022-11-20T00:29:27;19.17;;;12.30;;
31298;SDS011;17927;52.350;13.402;2022-11-20T00:31:52;20.63;;;11.95;;
31298;SDS011;17927;52.350;13.402;2022-11-20T00:34:18;19.70;;;11.52;;
31298;SDS011;17927;52.350;13.402;2022-11-20T00:36:43;17.92;;;11.85;;
31298;SDS011;17927;52.350;13.402;2022-11-20T00:39:08;16.77;;;12.05;;
31298;SDS011;17927;52.350;13.402;2022-11-20T00:41:33;17.25;;;11.55;;
31298;SDS011;17927;52.350;13.402;2022-11-20T00:43:59;17.67;;;12.60;;
31298;SDS011;17927;52.350;13.402;2022-11-20T00:46:25;16.90;;;12.00;;
31298;SDS011;17927;52.350;13.402;2022-11-20T00:48:51;16.85;;;12.32;;
31298;SDS011;17927;52.350;13.402;2022-11-20T00:51:17;16.90;;;11.73;;
31298;SDS011;17927;52.350;13.402;2022-11-20T00:53:45;15.73;;;10.88;;
31298;SDS011;17927;52.350;13.402;2022-11-20T00:56:11;18.85;;;12.70;;
31298;SDS011;17927;52.350;13.402;2022-11-20T00:58:38;16.90;;;11.25;;
31298;SDS011;17927;52.350;13.402;2022-11-20T01:03:33;16.38;;;11.18;;
31298;SDS011;17927;52.350;13.402;2022-11-20T01:06:00;15.57;;;11.48;;
31298;SDS011;17927;52.350;13.402;2022-11-20T01:08:34;18.52;;;12.13;;
31298;SDS011;17927;52.350;13.402;2022-11-20T01:11:01;16.83;;;11.27;;
31298;SDS011;17927;52.350;13.402;2022-11-20T01:13:28;17.73;;;11.77;;
31298;SDS011;17927;52.350;13.402;2022-11-20T01:16:06;20.73;;;12.77;;
31298;SDS011;17927;52.350;13.402;2022-11-20T01:18:40;17.05;;;11.98;;
31298;SDS011;17927;52.350;13.402;2022-11-20T01:21:08;18.85;;;12.38;;
31298;SDS011;17927;52.350;13.402;2022-11-20T01:23:37;16.63;;;11.05;;
31298;SDS011;17927;52.350;13.402;2022-11-20T01:26:05;15.40;;;11.57;;
31298;SDS011;17927;52.350;13.402;2022-11-20T01:28:32;17.90;;;11.98;;
31298;SDS011;17927;52.350;13.402;2022-11-20T01:30:58;19.48;;;12.55;;
31298;SDS011;17927;52.350;13.402;2022-11-20T01:33:24;17.52;;;12.05;;
31298;SDS011;17927;52.350;13.402;2022-11-20T01:35:49;14.23;;;11.07;;
31298;SDS011;17927;52.350;13.402;2022-11-20T01:38:15;15.98;;;11.18;;
31298;SDS011;17927;52.350;13.402;2022-11-20T01:40:41;19.33;;;11.82;;
31298;SDS011;17927;52.350;13.402;2022-11-20T01:43:14;17.60;;;11.60;;
31298;SDS011;17927;52.350;13.402;2022-11-20T01:48:57;18.55;;;12.45;;
31298;SDS011;17927;52.350;13.402;2022-11-20T01:51:29;16.67;;;11.68;;
31298;SDS011;17927;52.350;13.402;2022-11-20T01:54:00;19.00;;;11.63;;
31298;SDS011;17927;52.350;13.402;2022-11-20T01:56:29;15.67;;;11.70;;
31298;SDS011;17927;52.350;13.402;2022-11-20T01:59:00;18.23;;;12.60;;
31298;SDS011;17927;52.350;13.402;2022-11-20T02:01:28;20.75;;;13.02;;
31298;SDS011;17927;52.350;13.402;2022-11-20T02:03:54;19.63;;;12.27;;
31298;SDS011;17927;52.350;13.402;2022-11-20T02:06:27;16.95;;;11.52;;
31298;SDS011;17927;52.350;13.402;2022-11-20T02:08:56;17.65;;;12.40;;
31298;SDS011;17927;52.350;13.402;2022-11-20T02:11:21;21.60;;;12.15;;
31298;SDS011;17927;52.350;13.402;2022-11-20T02:13:47;21.95;;;12.55;;
31298;SDS011;17927;52.350;13.402;2022-11-20T02:16:18;16.88;;;11.20;;
31298;SDS011;17927;52.350;13.402;2022-11-20T02:18:49;22.02;;;13.27;;
31298;SDS011;17927;52.350;13.402;2022-11-20T02:21:21;17.33;;;12.27;;
31298;SDS011;17927;52.350;13.402;2022-11-20T02:23:55;19.42;;;12.25;;
31298;SDS011;17927;52.350;13.402;2022-11-20T02:26:21;18.77;;;12.13;;
31298;SDS011;17927;52.350;13.402;2022-11-20T02:28:48;21.00;;;12.88;;
31298;SDS011;17927;52.350;13.402;2022-11-20T02:31:14;19.75;;;12.88;;
31298;SDS011;17927;52.350;13.402;2022-11-20T02:33:39;19.00;;;13.00;;
31298;SDS011;17927;52.350;13.402;2022-11-20T02:36:05;21.92;;;12.38;;
31298;SDS011;17927;52.350;13.402;2022-11-20T02:38:33;17.08;;;11.68;;
31298;SDS011;17927;52.350;13.402;2022-11-20T02:40:58;18.15;;;12.25;;
31298;SDS011;17927;52.350;13.402;2022-11-20T02:43:23;16.90;;;12.13;;
31298;SDS011;17927;52.350;13.402;2022-11-20T02:45:49;17.23;;;11.65;;
31298;SDS011;17927;52.350;13.402;2022-11-20T02:48:14;18.95;;;12.80;;
31298;SDS011;17927;52.350;13.402;2022-11-20T02:50:39;18.00;;;12.32;;
31298;SDS011;17927;52.350;13.402;2022-11-20T02:53:05;17.20;;;11.75;;
31298;SDS011;17927;52.350;13.402;2022-11-20T02:55:30;17.92;;;12.60;;
31298;SDS011;17927;52.350;13.402;2022-11-20T02:57:56;21.42;;;13.00;;
31298;SDS011;17927;52.350;13.402;2022-11-20T03:00:21;20.00;;;13.77;;
31298;SDS011;17927;52.350;13.402;2022-11-20T03:02:46;18.05;;;13.02;;
31298;SDS011;17927;52.350;13.402;2022-11-20T03:05:12;16.08;;;12.13;;
31298;SDS011;17927;52.350;13.402;2022-11-20T03:07:37;16.25;;;11.07;;
31298;SDS011;17927;52.350;13.402;2022-11-20T03:10:03;19.42;;;12.02;;
31298;SDS011;17927;52.350;13.402;2022-11-20T03:12:28;19.45;;;13.25;;
31298;SDS011;17927;52.350;13.402;2022-11-20T03:14:54;16.38;;;11.23;;
31298;SDS011;17927;52.350;13.402;2022-11-20T03:17:19;21.35;;;12.85;;
31298;SDS011;17927;52.350;13.402;2022-11-20T03:19:44;17.63;;;12.50;;
31298;SDS011;17927;52.350;13.402;2022-11-20T03:22:09;16.42;;;11.77;;
31298;SDS011;17927;52.350;13.402;2022-11-20T03:24:35;16.52;;;11.35;;
31298;SDS011;17927;52.350;13.402;2022-11-20T03:27:00;19.02;;;12.32;;
31298;SDS011;17927;52.350;13.402;2022-11-20T03:29:25;17.35;;;12.32;;
31298;SDS011;17927;52.350;13.402;2022-11-20T03:31:50;17.75;;;10.90;;
31298;SDS011;17927;52.350;13.402;2022-11-20T03:34:16;18.90;;;12.23;;
31298;SDS011;17927;52.350;13.402;2022-11-20T03:36:42;17.33;;;11.77;;
31298;SDS011;17927;52.350;13.402;2022-11-20T03:39:08;19.63;;;12.77;;
31298;SDS011;17927;52.350;13.402;2022-11-20T03:41:38;17.75;;;12.10;;
31298;SDS011;17927;52.350;13.402;2022-11-20T03:44:05;19.33;;;11.98;;
31298;SDS011;17927;52.350;13.402;2022-11-20T03:46:32;16.20;;;11.23;;
31298;SDS011;17927;52.350;13.402;2022-11-20T03:48:58;19.30;;;12.32;;
31298;SDS011;17927;52.350;13.402;2022-11-20T03:51:25;17.13;;;12.80;;
31298;SDS011;17927;52.350;13.402;2022-11-20T03:53:56;19.63;;;12.75;;
31298;SDS011;17927;52.350;13.402;2022-11-20T03:56:23;16.70;;;11.75;;
31298;SDS011;17927;52.350;13.402;2022-11-20T03:58:51;16.60;;;11.32;;
31298;SDS011;17927;52.350;13.402;2022-11-20T04:01:17;16.88;;;10.93;;
31298;SDS011;17927;52.350;13.402;2022-11-20T04:03:45;16.70;;;11.15;;
31298;SDS011;17927;52.350;13.402;2022-11-20T04:06:15;18.02;;;11.13;;
31298;SDS011;17927;52.350;13.402;2022-11-20T04:13:45;15.15;;;10.68;;
31298;SDS011;17927;52.350;13.402;2022-11-20T04:16:12;19.15;;;11.98;;
31298;SDS011;17927;52.350;13.402;2022-11-20T04:18:38;15.65;;;10.80;;
31298;SDS011;17927;52.350;13.402;2022-11-20T04:21:04;20.48;;;12.43;;
31298;SDS011;17927;52.350;13.402;2022-11-20T04:23:29;20.83;;;12.90;;
31298;SDS011;17927;52.350;13.402;2022-11-20T04:26:00;18.73;;;12.52;;
31298;SDS011;17927;52.350;13.402;2022-11-20T04:28:27;16.48;;;12.00;;
31298;SDS011;17927;52.350;13.402;2022-11-20T04:30:52;17.02;;;11.52;;
31298;SDS011;17927;52.350;13.402;2022-11-20T04:33:17;19.98;;;11.43;;
31298;SDS011;17927;52.350;13.402;2022-11-20T04:35:42;18.65;;;12.25;;
31298;SDS011;17927;52.350;13.402;2022-11-20T04:38:11;16.95;;;11.30;;
31298;SDS011;17927;52.350;13.402;2022-11-20T04:40:37;20.33;;;12.38;;
31298;SDS011;17927;52.350;13.402;2022-11-20T04:43:02;19.10;;;12.25;;
31298;SDS011;17927;52.350;13.402;2022-11-20T04:45:28;17.48;;;12.05;;
31298;SDS011;17927;52.350;13.402;2022-11-20T04:47:53;16.88;;;11.82;;
31298;SDS011;17927;52.350;13.402;2022-11-20T04:50:18;17.90;;;12.02;;
31298;SDS011;17927;52.350;13.402;2022-11-20T04:52:43;19.67;;;11.25;;
31298;SDS011;17927;52.350;13.402;2022-11-20T04:55:08;15.35;;;11.48;;
31298;SDS011;17927;52.350;13.402;2022-11-20T04:57:34;17.48;;;11.68;;
31298;SDS011;17927;52.350;13.402;2022-11-20T04:59:59;19.85;;;12.40;;
31298;SDS011;17927;52.350;13.402;2022-11-20T05:02:24;20.50;;;11.95;;
31298;SDS011;17927;52.350;13.402;2022-11-20T05:04:50;16.92;;;12.32;;
31298;SDS011;17927;52.350;13.402;2022-11-20T05:07:15;18.17;;;11.35;;
31298;SDS011;17927;52.350;13.402;2022-11-20T05:09:40;17.02;;;11.23;;
31298;SDS011;17927;52.350;13.402;2022-11-20T05:12:07;16.60;;;11.40;;
31298;SDS011;17927;52.350;13.402;2022-11-20T05:14:33;16.55;;;11.02;;
31298;SDS011;17927;52.350;13.402;2022-11-20T05:16:58;18.27;;;11.60;;
31298;SDS011;17927;52.350;13.402;2022-11-20T05:19:23;18.67;;;12.45;;
31298;SDS011;17927;52.350;13.402;2022-11-20T05:21:49;16.45;;;11.20;;
31298;SDS011;17927;52.350;13.402;2022-11-20T05:24:14;18.63;;;12.38;;
31298;SDS011;17927;52.350;13.402;2022-11-20T05:26:39;21.15;;;12.50;;
31298;SDS011;17927;52.350;13.402;2022-11-20T05:29:04;20.65;;;12.02;;
31298;SDS011;17927;52.350;13.402;2022-11-20T05:31:29;17.67;;;12.02;;
31298;SDS011;17927;52.350;13.402;2022-11-20T05:33:55;15.95;;;11.65;;
31298;SDS011;17927;52.350;13.402;2022-11-20T05:36:21;19.73;;;12.75;;
31298;SDS011;17927;52.350;13.402;2022-11-20T05:38:46;18.33;;;12.43;;
31298;SDS011;17927;52.350;13.402;2022-11-20T05:41:13;17.70;;;12.40;;
31298;SDS011;17927;52.350;13.402;2022-11-20T05:43:40;17.95;;;11.82;;
31298;SDS011;17927;52.350;13.402;2022-11-20T05:46:08;17.67;;;11.88;;
31298;SDS011;17927;52.350;13.402;2022-11-20T05:48:35;17.67;;;11.80;;
31298;SDS011;17927;52.350;13.402;2022-11-20T05:51:03;21.10;;;13.43;;
31298;SDS011;17927;52.350;13.402;2022-11-20T05:53:31;19.17;;;13.05;;
31298;SDS011;17927;52.350;13.402;2022-11-20T05:55:58;17.75;;;12.30;;
31298;SDS011;17927;52.350;13.402;2022-11-20T05:58:25;17.33;;;11.65;;
31298;SDS011;17927;52.350;13.402;2022-11-20T06:00:50;15.88;;;11.38;;
31298;SDS011;17927;52.350;13.402;2022-11-20T06:03:16;17.15;;;12.15;;
31298;SDS011;17927;52.350;13.402;2022-11-20T06:05:41;20.17;;;12.80;;
31298;SDS011;17927;52.350;13.402;2022-11-20T06:08:06;15.40;;;10.93;;
31298;SDS011;17927;52.350;13.402;2022-11-20T06:10:31;18.15;;;12.05;;
31298;SDS011;17927;52.350;13.402;2022-11-20T06:12:57;19.00;;;12.13;;
31298;SDS011;17927;52.350;13.402;2022-11-20T06:15:23;17.67;;;12.15;;
31298;SDS011;17927;52.350;13.402;2022-11-20T06:17:51;18.95;;;13.30;;
31298;SDS011;17927;52.350;13.402;2022-11-20T06:20:17;18.52;;;11.85;;
31298;SDS011;17927;52.350;13.402;2022-11-20T06:22:42;21.88;;;12.45;;
31298;SDS011;17927;52.350;13.402;2022-11-20T06:25:07;18.67;;;12.40;;
31298;SDS011;17927;52.350;13.402;2022-11-20T06:27:33;20.98;;;12.48;;
31298;SDS011;17927;52.350;13.402;2022-11-20T06:29:58;19.63;;;12.63;;
31298;SDS011;17927;52.350;13.402;2022-11-20T06:32:23;19.05;;;12.05;;
31298;SDS011;17927;52.350;13.402;2022-11-20T06:34:48;22.00;;;13.38;;
31298;SDS011;17927;52.350;13.402;2022-11-20T06:37:14;21.50;;;12.98;;
31298;SDS011;17927;52.350;13.402;2022-11-20T06:39:39;20.30;;;13.55;;
31298;SDS011;17927;52.350;13.402;2022-11-20T06:42:04;18.70;;;12.02;;
31298;SDS011;17927;52.350;13.402;2022-11-20T06:44:29;16.50;;;12.60;;
31298;SDS011;17927;52.350;13.402;2022-11-20T06:46:55;20.80;;;13.52;;
31298;SDS011;17927;52.350;13.402;2022-11-20T06:49:20;18.33;;;12.95;;
31298;SDS011;17927;52.350;13.402;2022-11-20T06:51:45;21.08;;;13.82;;
31298;SDS011;17927;52.350;13.402;2022-11-20T06:54:11;24.75;;;13.73;;
31298;SDS011;17927;52.350;13.402;2022-11-20T06:56:36;21.63;;;13.55;;
31298;SDS011;17927;52.350;13.402;2022-11-20T06:59:03;27.75;;;13.57;;
31298;SDS011;17927;52.350;13.402;2022-11-20T07:01:30;21.55;;;13.63;;
31298;SDS011;17927;52.350;13.402;2022-11-20T07:03:55;35.20;;;19.05;;
31298;SDS011;17927;52.350;13.402;2022-11-20T07:06:21;24.83;;;15.00;;
31298;SDS011;17927;52.350;13.402;2022-11-20T07:08:46;23.02;;;13.82;;
31298;SDS011;17927;52.350;13.402;2022-11-20T07:11:12;19.77;;;13.88;;
31298;SDS011;17927;52.350;13.402;2022-11-20T07:13:37;20.45;;;13.65;;
31298;SDS011;17927;52.350;13.402;2022-11-20T07:16:03;23.10;;;14.55;;
31298;SDS011;17927;52.350;13.402;2022-11-20T07:18:31;23.80;;;14.50;;
31298;SDS011;17927;52.350;13.402;2022-11-20T07:21:01;24.40;;;14.52;;
31298;SDS011;17927;52.350;13.402;2022-11-20T07:23:27;18.70;;;13.40;;
31298;SDS011;17927;52.350;13.402;2022-11-20T07:25:53;21.33;;;14.05;;
31298;SDS011;17927;52.350;13.402;2022-11-20T07:28:18;24.10;;;15.70;;
31298;SDS011;17927;52.350;13.402;2022-11-20T07:30:48;24.08;;;15.55;;
31298;SDS011;17927;52.350;13.402;2022-11-20T07:33:14;22.70;;;13.13;;
31298;SDS011;17927;52.350;13.402;2022-11-20T07:35:40;28.23;;;15.38;;
31298;SDS011;17927;52.350;13.402;2022-11-20T07:38:05;25.38;;;14.80;;
31298;SDS011;17927;52.350;13.402;2022-11-20T07:40:30;22.90;;;15.05;;
31298;SDS011;17927;52.350;13.402;2022-11-20T07:42:55;23.67;;;14.75;;
31298;SDS011;17927;52.350;13.402;2022-11-20T07:45:22;24.58;;;14.20;;
31298;SDS011;17927;52.350;13.402;2022-11-20T07:47:48;25.42;;;14.48;;
31298;SDS011;17927;52.350;13.402;2022-11-20T07:50:13;28.98;;;16.05;;
31298;SDS011;17927;52.350;13.402;2022-11-20T07:52:39;23.65;;;13.23;;
31298;SDS011;17927;52.350;13.402;2022-11-20T07:55:05;21.88;;;13.68;;
31298;SDS011;17927;52.350;13.402;2022-11-20T07:57:31;23.70;;;13.43;;
31298;SDS011;17927;52.350;13.402;2022-11-20T07:59:56;19.10;;;13.52;;
31298;SDS011;17927;52.350;13.402;2022-11-20T08:02:22;20.45;;;13.50;;
31298;SDS011;17927;52.350;13.402;2022-11-20T08:04:47;22.17;;;13.32;;
31298;SDS011;17927;52.350;13.402;2022-11-20T08:07:12;19.17;;;13.88;;
31298;SDS011;17927;52.350;13.402;2022-11-20T08:09:37;21.00;;;13.52;;
31298;SDS011;17927;52.350;13.402;2022-11-20T08:12:03;18.30;;;12.90;;
31298;SDS011;17927;52.350;13.402;2022-11-20T08:14:47;21.52;;;13.55;;
31298;SDS011;17927;52.350;13.402;2022-11-20T08:17:12;20.33;;;13.43;;
31298;SDS011;17927;52.350;13.402;2022-11-20T08:19:37;24.75;;;13.60;;
31298;SDS011;17927;52.350;13.402;2022-11-20T08:22:02;20.40;;;13.00;;
31298;SDS011;17927;52.350;13.402;2022-11-20T08:24:28;20.00;;;12.60;;
31298;SDS011;17927;52.350;13.402;2022-11-20T08:26:53;32.47;;;19.58;;
31298;SDS011;17927;52.350;13.402;2022-11-20T08:29:18;35.13;;;18.80;;
31298;SDS011;17927;52.350;13.402;2022-11-20T08:31:43;25.52;;;15.55;;
31298;SDS011;17927;52.350;13.402;2022-11-20T08:34:09;18.38;;;13.50;;
31298;SDS011;17927;52.350;13.402;2022-11-20T08:36:34;16.17;;;12.77;;
31298;SDS011;17927;52.350;13.402;2022-11-20T08:39:00;18.45;;;13.00;;
31298;SDS011;17927;52.350;13.402;2022-11-20T08:41:25;19.23;;;13.65;;
31298;SDS011;17927;52.350;13.402;2022-11-20T08:46:33;20.77;;;13.95;;
31298;SDS011;17927;52.350;13.402;2022-11-20T08:49:04;20.58;;;13.40;;
31298;SDS011;17927;52.350;13.402;2022-11-20T08:51:31;20.40;;;13.32;;
31298;SDS011;17927;52.350;13.402;2022-11-20T08:53:56;21.98;;;13.40;;
31298;SDS011;17927;52.350;13.402;2022-11-20T08:56:22;21.50;;;13.68;;
31298;SDS011;17927;52.350;13.402;2022-11-20T08:58:47;20.77;;;13.48;;
31298;SDS011;17927;52.350;13.402;2022-11-20T09:01:12;22.40;;;14.38;;
31298;SDS011;17927;52.350;13.402;2022-11-20T09:03:37;21.55;;;14.25;;
31298;SDS011;17927;52.350;13.402;2022-11-20T09:06:04;21.95;;;14.70;;
31298;SDS011;17927;52.350;13.402;2022-11-20T09:08:31;19.85;;;14.27;;
31298;SDS011;17927;52.350;13.402;2022-11-20T09:10:57;25.60;;;14.85;;
31298;SDS011;17927;52.350;13.402;2022-11-20T09:13:24;20.13;;;14.25;;
31298;SDS011;17927;52.350;13.402;2022-11-20T09:15:57;23.35;;;15.48;;
31298;SDS011;17927;52.350;13.402;2022-11-20T09:18:24;22.63;;;15.02;;
31298;SDS011;17927;52.350;13.402;2022-11-20T09:20:49;23.48;;;14.90;;
31298;SDS011;17927;52.350;13.402;2022-11-20T09:23:15;21.50;;;14.25;;
31298;SDS011;17927;52.350;13.402;2022-11-20T09:25:41;24.25;;;14.52;;
31298;SDS011;17927;52.350;13.402;2022-11-20T09:28:06;24.90;;;15.60;;
31298;SDS011;17927;52.350;13.402;2022-11-20T09:30:32;25.48;;;15.43;;
31298;SDS011;17927;52.350;13.402;2022-11-20T09:32:57;20.75;;;13.85;;
31298;SDS011;17927;52.350;13.402;2022-11-20T09:35:22;28.20;;;15.93;;
31298;SDS011;17927;52.350;13.402;2022-11-20T09:37:48;25.10;;;16.67;;
31298;SDS011;17927;52.350;13.402;2022-11-20T09:40:18;25.13;;;16.05;;
31298;SDS011;17927;52.350;13.402;2022-11-20T09:46:07;23.83;;;16.27;;
31298;SDS011;17927;52.350;13.402;2022-11-20T09:51:21;28.35;;;16.63;;
31298;SDS011;17927;52.350;13.402;2022-11-20T09:54:14;25.40;;;16.23;;
31298;SDS011;17927;52.350;13.402;2022-11-20T09:56:44;25.40;;;16.58;;
31298;SDS011;17927;52.350;13.402;2022-11-20T09:59:32;24.67;;;16.92;;
31298;SDS011;17927;52.350;13.402;2022-11-20T10:01:59;25.13;;;14.88;;
31298;SDS011;17927;52.350;13.402;2022-11-20T10:04:27;24.98;;;16.13;;
31298;SDS011;17927;52.350;13.402;2022-11-20T10:07:00;31.83;;;16.90;;
31298;SDS011;17927;52.350;13.402;2022-11-20T10:09:37;25.75;;;17.17;;
31298;SDS011;17927;52.350;13.402;2022-11-20T10:12:12;29.40;;;17.33;;
31298;SDS011;17927;52.350;13.402;2022-11-20T10:14:54;28.60;;;15.77;;
31298;SDS011;17927;52.350;13.402;2022-11-20T10:17:34;23.08;;;15.20;;
31298;SDS011;17927;52.350;13.402;2022-11-20T10:25:29;24.08;;;15.07;;
31298;SDS011;17927;52.350;13.402;2022-11-20T10:30:39;28.10;;;16.73;;
31298;SDS011;17927;52.350;13.402;2022-11-20T10:33:21;24.17;;;15.68;;
31298;SDS011;17927;52.350;13.402;2022-11-20T10:41:24;21.40;;;14.45;;
31298;SDS011;17927;52.350;13.402;2022-11-20T10:44:16;22.67;;;13.90;;
31298;SDS011;17927;52.350;13.402;2022-11-20T10:47:02;21.98;;;14.73;;
31298;SDS011;17927;52.350;13.402;2022-11-20T10:49:29;23.20;;;14.93;;
31298;SDS011;17927;52.350;13.402;2022-11-20T10:52:03;21.25;;;14.80;;
31298;SDS011;17927;52.350;13.402;2022-11-20T10:54:44;23.27;;;14.90;;
31298;SDS011;17927;52.350;13.402;2022-11-20T10:57:27;25.08;;;16.20;;
31298;SDS011;17927;52.350;13.402;2022-11-20T11:00:09;23.92;;;15.77;;
31298;SDS011;17927;52.350;13.402;2022-11-20T11:02:39;24.92;;;15.88;;
31298;SDS011;17927;52.350;13.402;2022-11-20T11:07:45;22.88;;;14.25;;
31298;SDS011;17927;52.350;13.402;2022-11-20T11:12:45;26.50;;;15.70;;
31298;SDS011;17927;52.350;13.402;2022-11-20T11:15:24;23.13;;;14.93;;
31298;SDS011;17927;52.350;13.402;2022-11-20T11:18:10;22.52;;;15.13;;
31298;SDS011;17927;52.350;13.402;2022-11-20T11:20:36;24.42;;;14.38;;
31298;SDS011;17927;52.350;13.402;2022-11-20T11:23:02;21.73;;;15.02;;
31298;SDS011;17927;52.350;13.402;2022-11-20T11:25:33;22.15;;;14.88;;
31298;SDS011;17927;52.350;13.402;2022-11-20T11:28:04;23.52;;;14.55;;
31298;SDS011;17927;52.350;13.402;2022-11-20T11:30:45;25.05;;;15.93;;
31298;SDS011;17927;52.350;13.402;2022-11-20T11:33:11;22.52;;;14.82;;
31298;SDS011;17927;52.350;13.402;2022-11-20T11:36:17;23.83;;;15.50;;
31298;SDS011;17927;52.350;13.402;2022-11-20T11:39:01;22.88;;;13.82;;
31298;SDS011;17927;52.350;13.402;2022-11-20T11:41:29;20.98;;;14.52;;
31298;SDS011;17927;52.350;13.402;2022-11-20T11:44:21;22.60;;;14.45;;
31298;SDS011;17927;52.350;13.402;2022-11-20T11:58:43;19.23;;;12.60;;
31298;SDS011;17927;52.350;13.402;2022-11-20T12:04:17;23.02;;;14.60;;
31298;SDS011;17927;52.350;13.402;2022-11-20T12:06:58;19.85;;;13.35;;
31298;SDS011;17927;52.350;13.402;2022-11-20T12:09:32;21.27;;;13.75;;
31298;SDS011;17927;52.350;13.402;2022-11-20T12:12:04;21.33;;;13.73;;
31298;SDS011;17927;52.350;13.402;2022-11-20T12:14:38;20.25;;;12.52;;
31298;SDS011;17927;52.350;13.402;2022-11-20T12:17:08;22.92;;;13.85;;
31298;SDS011;17927;52.350;13.402;2022-11-20T12:19:36;18.67;;;11.85;;
31298;SDS011;17927;52.350;13.402;2022-11-20T12:24:58;15.95;;;10.90;;
31298;SDS011;17927;52.350;13.402;2022-11-20T12:30:11;14.25;;;9.98;;
31298;SDS011;17927;52.350;13.402;2022-11-20T12:41:00;14.55;;;9.68;;
31298;SDS011;17927;52.350;13.402;2022-11-20T12:43:43;11.77;;;9.43;;
31298;SDS011;17927;52.350;13.402;2022-11-20T12:46:46;13.77;;;8.85;;
31298;SDS011;17927;52.350;13.402;2022-11-20T12:57:24;8.00;;;6.65;;
31298;SDS011;17927;52.350;13.402;2022-11-20T13:02:54;9.60;;;7.97;;
31298;SDS011;17927;52.350;13.402;2022-11-20T13:05:51;13.13;;;8.25;;
31298;SDS011;17927;52.350;13.402;2022-11-20T13:08:36;11.25;;;7.68;;
31298;SDS011;17927;52.350;13.402;2022-11-20T13:16:32;8.98;;;8.00;;
31298;SDS011;17927;52.350;13.402;2022-11-20T13:19:04;12.73;;;9.10;;
31298;SDS011;17927;52.350;13.402;2022-11-20T13:21:37;11.75;;;8.90;;
31298;SDS011;17927;52.350;13.402;2022-11-20T13:26:30;11.85;;;8.05;;
31298;SDS011;17927;52.350;13.402;2022-11-20T13:32:03;13.35;;;8.93;;
31298;SDS011;17927;52.350;13.402;2022-11-20T13:34:39;14.57;;;8.85;;
31298;SDS011;17927;52.350;13.402;2022-11-20T13:37:24;13.70;;;9.23;;
31298;SDS011;17927;52.350;13.402;2022-11-20T13:39:52;13.35;;;8.70;;
31298;SDS011;17927;52.350;13.402;2022-11-20T13:42:22;10.95;;;8.35;;
31298;SDS011;17927;52.350;13.402;2022-11-20T13:44:55;12.98;;;8.48;;
31298;SDS011;17927;52.350;13.402;2022-11-20T13:47:27;10.63;;;8.50;;
31298;SDS011;17927;52.350;13.402;2022-11-20T13:49:54;15.85;;;9.93;;
31298;SDS011;17927;52.350;13.402;2022-11-20T13:55:19;16.80;;;9.15;;
31298;SDS011;17927;52.350;13.402;2022-11-20T13:58:07;12.20;;;9.18;;
31298;SDS011;17927;52.350;13.402;2022-11-20T14:00:50;16.95;;;9.45;;
31298;SDS011;17927;52.350;13.402;2022-11-20T14:03:21;14.65;;;9.85;;
31298;SDS011;17927;52.350;13.402;2022-11-20T14:05:52;17.10;;;9.15;;
31298;SDS011;17927;52.350;13.402;2022-11-20T14:08:32;14.95;;;9.93;;
31298;SDS011;17927;52.350;13.402;2022-11-20T14:11:04;15.82;;;10.32;;
31298;SDS011;17927;52.350;13.402;2022-11-20T14:13:31;14.23;;;9.38;;
31298;SDS011;17927;52.350;13.402;2022-11-20T14:15:56;9.95;;;8.05;;
31298;SDS011;17927;52.350;13.402;2022-11-20T14:18:22;13.05;;;9.60;;
31298;SDS011;17927;52.350;13.402;2022-11-20T14:20:47;13.77;;;9.77;;
31298;SDS011;17927;52.350;13.402;2022-11-20T14:23:22;13.98;;;9.50;;
31298;SDS011;17927;52.350;13.402;2022-11-20T14:25:49;14.05;;;9.68;;
31298;SDS011;17927;52.350;13.402;2022-11-20T14:28:28;12.68;;;10.02;;
31298;SDS011;17927;52.350;13.402;2022-11-20T14:30:55;12.23;;;9.55;;
31298;SDS011;17927;52.350;13.402;2022-11-20T14:33:21;13.23;;;10.13;;
31298;SDS011;17927;52.350;13.402;2022-11-20T14:35:53;14.27;;;9.95;;
31298;SDS011;17927;52.350;13.402;2022-11-20T14:38:25;13.85;;;9.75;;
31298;SDS011;17927;52.350;13.402;2022-11-20T14:40:53;19.17;;;10.25;;
31298;SDS011;17927;52.350;13.402;2022-11-20T14:43:22;18.42;;;10.68;;
31298;SDS011;17927;52.350;13.402;2022-11-20T14:46:11;14.98;;;9.93;;
31298;SDS011;17927;52.350;13.402;2022-11-20T14:48:43;12.50;;;10.15;;
31298;SDS011;17927;52.350;13.402;2022-11-20T14:51:11;14.95;;;9.45;;
31298;SDS011;17927;52.350;13.402;2022-11-20T14:53:48;14.70;;;9.40;;
31298;SDS011;17927;52.350;13.402;2022-11-20T14:56:13;17.38;;;10.55;;
31298;SDS011;17927;52.350;13.402;2022-11-20T14:58:54;13.27;;;10.23;;
31298;SDS011;17927;52.350;13.402;2022-11-20T15:01:25;11.70;;;9.25;;
31298;SDS011;17927;52.350;13.402;2022-11-20T15:03:58;12.45;;;8.98;;
31298;SDS011;17927;52.350;13.402;2022-11-20T15:06:25;13.00;;;9.90;;
31298;SDS011;17927;52.350;13.402;2022-11-20T15:08:51;13.10;;;10.13;;
31298;SDS011;17927;52.350;13.402;2022-11-20T15:11:17;13.60;;;10.40;;
31298;SDS011;17927;52.350;13.402;2022-11-20T15:13:44;12.13;;;9.68;;
31298;SDS011;17927;52.350;13.402;2022-11-20T15:16:13;13.57;;;9.52;;
31298;SDS011;17927;52.350;13.402;2022-11-20T15:18:43;12.60;;;8.55;;
31298;SDS011;17927;52.350;13.402;2022-11-20T15:21:13;16.38;;;10.27;;
31298;SDS011;17927;52.350;13.402;2022-11-20T15:23:39;12.23;;;9.18;;
31298;SDS011;17927;52.350;13.402;2022-11-20T15:26:04;15.50;;;9.63;;
31298;SDS011;17927;52.350;13.402;2022-11-20T15:28:31;12.30;;;8.95;;
31298;SDS011;17927;52.350;13.402;2022-11-20T15:31:00;15.50;;;10.38;;
31298;SDS011;17927;52.350;13.402;2022-11-20T15:33:27;12.45;;;9.10;;
31298;SDS011;17927;52.350;13.402;2022-11-20T15:35:52;12.40;;;9.65;;
31298;SDS011;17927;52.350;13.402;2022-11-20T15:38:17;16.75;;;10.18;;
31298;SDS011;17927;52.350;13.402;2022-11-20T15:40:42;16.42;;;10.20;;
31298;SDS011;17927;52.350;13.402;2022-11-20T15:43:08;23.67;;;10.68;;
31298;SDS011;17927;52.350;13.402;2022-11-20T15:45:46;13.88;;;9.57;;
31298;SDS011;17927;52.350;13.402;2022-11-20T15:48:15;14.48;;;10.05;;
31298;SDS011;17927;52.350;13.402;2022-11-20T15:50:55;14.15;;;9.10;;